Nearby METAR Reports

 

KTTN - Trenton, New Jersey, USA
Distance from station: WNW 11mi, 17km
Updated: Sat, 12-Jun-2021 12:00pm EDT
Mostly cloudy
Mostly cloudy
 Wind from E
Wind: E 10 mph , 17 km/h
Temperature: 72°F , 22°C
Dew Point: 63°F , 17°C
Humidity: 73%
Barometer: 29.86 inHg , 1011.2 hPa
Clouds: Mostly cloudy
Visibility: 10 miles , 16 km
Cloud details: Few Clouds 3000 ft
Partly cloudy 3700 ft
Mostly cloudy 4900 ft
2021/06/12 16:00 KTTN 121600Z 10009KT 10SM FEW030 SCT037 BKN049 22/17 A2986 RMK AO2 T02220167
KWRI - Wrightst/Mcguire, New Jersey, USA
Distance from station: SSE 14mi, 22km
Updated: Sat, 12-Jun-2021 11:56am EDT
Overcast
Overcast
 Wind from ENE
Wind: ENE 12 mph , 19 km/h
Temperature: 72°F , 22°C
Dew Point: 61°F , 16°C
Humidity: 69%
Barometer: 29.86 inHg , 1011.2 hPa
Clouds: Overcast
Visibility: 10 miles , 16 km
Cloud details: Partly cloudy 3000 ft
Overcast 4000 ft
2021/06/12 15:56 KWRI 121556Z 07010KT 10SM SCT030 OVC040 22/16 A2986 RMK AO2A SLP111 T02150156 $
 
KNEL - Lakehurst Nas, New Jersey, USA
Distance from station: SE 21mi, 34km
Updated: Sat, 12-Jun-2021 12:00pm EDT
Mostly cloudy
Mostly cloudy
 Wind from E
Wind: E 13 mph , 20 km/h
Barometer: 29.86 inHg , 1011.2 hPa
Clouds: Mostly cloudy
Visibility: 10 miles , 16 km
Cloud details: Partly cloudy 2600 ft
Partly cloudy 3400 ft
Mostly cloudy 4300 ft
2021/06/12 16:00 KNEL 121600Z AUTO 10011KT 10SM SCT026 SCT034 BKN043 A2986 RMK AO2 SLPNO $
KPNE - Philadelphia/Ne, Pennsylvania, USA
Distance from station: WSW 22mi, 35km
Updated: Sat, 12-Jun-2021 12:18pm EDT
Mostly cloudy
Mostly cloudy
 Wind from ENE
Wind: ENE 5 mph , 7 km/h
Temperature: 73°F , 23°C
Dew Point: 61°F , 16°C
Humidity: 65%
Barometer: 29.87 inHg , 1011.5 hPa
Clouds: Mostly cloudy
Visibility: 10 miles , 16 km
Cloud details: Partly cloudy 3200 ft
Mostly cloudy 6000 ft
2021/06/12 16:18 KPNE 121618Z 06004KT 10SM SCT032 BKN060 23/16 A2987 RMK AO2 T02330156
 
KVAY - Mount Holly, New Jersey, USA
Distance from station: SSW 22mi, 35km
Updated: Sat, 12-Jun-2021 11:54am EDT
Overcast
Overcast
 Wind from varies
Wind: varies 6 mph , 9 km/h
Temperature: 73°F , 23°C
Dew Point: 57°F , 14°C
Humidity: 57%
Barometer: 29.86 inHg , 1011.2 hPa
Clouds: Overcast
Visibility: 10 miles , 16 km
Cloud details: Mostly cloudy 3700 ft
Overcast 5000 ft
2021/06/12 15:54 KVAY 121554Z AUTO VRB05KT 10SM BKN037 OVC050 23/14 A2986 RMK AO2 SLP109 T02330144 $
KMJX - Toms River, New Jersey, USA
Distance from station: SE 26mi, 42km
Updated: Sat, 12-Jun-2021 9:56am EDT
NOT Current
Overcast
Overcast
 Wind from NE
Wind: NE 10 mph , 17 km/h
Temperature: 70°F , 21°C
Dew Point: 63°F , 17°C
Humidity: 78%
Barometer: 29.85 inHg , 1010.8 hPa
Clouds: Overcast
Visibility: 10 miles , 16 km
Cloud details: Overcast 1800 ft
2021/06/12 13:56 KMJX 121356Z AUTO 05009KT 030V100 10SM OVC018 21/17 A2985 RMK AO2 SLP112 T02060167 TSNO
 
KDYL - Doylestown, Pennsylvania, USA
Distance from station: WNW 27mi, 43km
Updated: Sat, 12-Jun-2021 12:43pm EDT
Overcast
Overcast
 Wind from calm
Wind: Calm
Temperature: 72°F , 22°C
Dew Point: 59°F , 15°C
Humidity: 65%
Barometer: 29.87 inHg , 1011.5 hPa
Clouds: Overcast
Visibility: 10 miles , 16 km
Cloud details: Mostly cloudy 2900 ft
Mostly cloudy 3600 ft
Overcast 4600 ft
2021/06/12 16:43 KDYL 121643Z AUTO 00000KT 10SM BKN029 BKN036 OVC046 22/15 A2987 RMK AO2 T02220150 $
KBLM - Belmar/Farmdale, New Jersey, USA
Distance from station: E 28mi, 45km
Updated: Sat, 12-Jun-2021 12:15pm EDT
Mostly cloudy
Mostly cloudy
 Wind from E
Wind: E 10 mph , 17 km/h
Temperature: 66°F , 19°C
Dew Point: 57°F , 14°C
Humidity: 73%
Barometer: 29.90 inHg , 1012.5 hPa
Clouds: Mostly cloudy
Visibility: 10 miles , 16 km
Cloud details: Mostly cloudy 2400 ft
Mostly cloudy 6000 ft
2021/06/12 16:15 KBLM 121615Z AUTO 08009KT 10SM BKN024 BKN060 19/14 A2990 RMK AO2 PNO $
 
KSMQ - Somerville, New Jersey, USA
Distance from station: N 28mi, 45km
Updated: Sat, 12-Jun-2021 11:53am EDT
Overcast
Overcast
 
Temperature: 72°F , 22°C
Dew Point: 61°F , 16°C
Humidity: 69%
Barometer: 29.85 inHg , 1010.8 hPa
Clouds: Overcast
Visibility: 10 miles , 16 km
Cloud details: Few Clouds 2600 ft
Few Clouds 3200 ft
Overcast 4600 ft
2021/06/12 15:53 KSMQ 121553Z AUTO 10SM FEW026 FEW032 OVC046 22/16 A2985 RMK AO2 SLP108 T02170156
KLOM - Philly Wings F, Pennsylvania, USA
Distance from station: W 34mi, 54km
Updated: Sat, 12-Jun-2021 12:35pm EDT
Overcast
Overcast
 Wind from NNE
Wind: NNE 5 mph , 7 km/h
Temperature: 73°F , 23°C
Dew Point: 61°F , 16°C
Humidity: 65%
Barometer: 29.87 inHg , 1011.5 hPa
Clouds: Overcast
Visibility: 10 miles , 16 km
Cloud details: Partly cloudy 2900 ft
Overcast 5000 ft
2021/06/12 16:35 KLOM 121635Z AUTO 03004KT 10SM SCT029 OVC050 23/16 A2987 RMK AO2 T02270161
 
KLDJ - Linden, New Jersey, USA
Distance from station: NE 35mi, 56km
Updated: Sat, 12-Jun-2021 12:35pm EDT
Overcast
Overcast
 Wind from SSE
Wind: SSE 12 mph , 19 km/h
Temperature: 66°F , 19°C
Dew Point: 57°F , 14°C
Humidity: 73%
Barometer: 29.88 inHg , 1011.9 hPa
Clouds: Overcast
Visibility: 10 miles , 16 km
Cloud details: Partly cloudy 2300 ft
Overcast 3400 ft
2021/06/12 16:35 KLDJ 121635Z AUTO 16010KT 10SM SCT023 OVC034 19/14 A2988 RMK AO2 T01910135
KCKZ - Perkasie, Pennsylvania, USA
Distance from station: WNW 36mi, 58km
Updated: Sat, 12-Jun-2021 12:35pm EDT
Overcast
Overcast
 Wind from ESE
Wind: ESE 5 mph , 7 km/h
Temperature: 66°F , 19°C
Dew Point: 63°F , 17°C
Humidity: 88%
Barometer: 29.90 inHg , 1012.5 hPa
Clouds: Overcast
Visibility: 10 miles , 16 km
Cloud details: Mostly cloudy 2700 ft
Overcast 3400 ft
2021/06/12 16:35 KCKZ 121635Z AUTO 11004KT 10SM BKN027 OVC034 19/17 A2990 RMK AO2
 
KPHL - Philadelphia, Pennsylvania, USA
Distance from station: SW 40mi, 64km
Updated: Sat, 12-Jun-2021 11:54am EDT
Overcast
Overcast
 Wind from NE
Wind: NE 7 mph , 11 km/h
Temperature: 75°F , 24°C
Dew Point: 61°F , 16°C
Humidity: 61%
Barometer: 29.86 inHg , 1011.2 hPa
Clouds: Overcast
Visibility: 10 miles , 16 km
Cloud details: Partly cloudy 3400 ft
Overcast 5500 ft
2021/06/12 15:54 KPHL 121554Z 05006KT 10SM SCT034 OVC055 24/16 A2986 RMK AO2 SLP110 T02390156 $
KEWR - Newark, New Jersey, USA
Distance from station: NE 41mi, 66km
Updated: Sat, 12-Jun-2021 11:51am EDT
Light rain, Overcast
Light rain, Overcast
 Wind from E
Wind: E 5 mph , 7 km/h
Temperature: 70°F , 21°C
Dew Point: 61°F , 16°C
Humidity: 73%
Barometer: 29.87 inHg , 1011.5 hPa
Summary: Light rain
Clouds: Overcast
Visibility: 10 miles , 16 km
Cloud details: Few Clouds 2000 ft
Partly cloudy 3500 ft
Overcast 5000 ft
2021/06/12 15:51 KEWR 121551Z 10004KT 10SM -RA FEW020 SCT035 OVC050 21/16 A2987 RMK AO2 RAB45 SLP113 P0000 T02110156 $
 
KMMU - Morristown Muni, New Jersey, USA
Distance from station: NNE 41mi, 66km
Updated: Sat, 12-Jun-2021 11:51am EDT
Overcast
Overcast
 Wind from SE
Wind: SE 6 mph , 9 km/h
Temperature: 72°F , 22°C
Dew Point: 66°F , 19°C
Humidity: 83%
Barometer: 29.88 inHg , 1011.9 hPa
Clouds: Overcast
Visibility: 10 miles , 16 km
Cloud details: Partly cloudy 2000 ft
Partly cloudy 3500 ft
Overcast 4900 ft
2021/06/12 15:51 KMMU 121551Z 14005KT 10SM SCT020 SCT035 OVC049 22/19 A2988
KUKT - Quakertown Arp, Pennsylvania, USA
Distance from station: WNW 42mi, 68km
Updated: Sat, 12-Jun-2021 12:35pm EDT
Haze, Overcast
Haze, Overcast
 Wind from calm
Wind: Calm
Temperature: 70°F , 21°C
Dew Point: 61°F , 16°C
Humidity: 73%
Barometer: 29.88 inHg , 1011.9 hPa
Summary: Haze
Clouds: Overcast
Visibility: 1 mile , 2 km
Cloud details: Overcast 2400 ft
2021/06/12 16:35 KUKT 121635Z AUTO 00000KT 1SM HZ OVC024 21/16 A2988 RMK A01
 
KJRB - Manhattan/Dwntwn, New York, USA
Distance from station: NE 47mi, 75km
Updated: Sat, 12-Jun-2021 12:12pm EDT
Overcast
Overcast
 Wind from ENE
Wind: ENE 5 mph , 7 km/h
Temperature: 66°F , 19°C
Dew Point: 59°F , 15°C
Humidity: 78%
Barometer: 29.89 inHg , 1012.2 hPa
Clouds: Overcast
Visibility: 10 miles , 16 km
Cloud details: Mostly cloudy 2000 ft
Mostly cloudy 2700 ft
Overcast 4800 ft
2021/06/12 16:12 KJRB 121612Z AUTO 06004KT 10SM BKN020 BKN027 OVC048 19/15 A2989 RMK AO2
KPTW - Pottstown, Pennsylvania, USA
Distance from station: W 48mi, 77km
Updated: Sat, 12-Jun-2021 12:30pm EDT
Overcast
Overcast
 Wind from ENE
Wind: ENE 3 mph , 6 km/h
Temperature: 70°F , 21°C
Dew Point: 59°F , 15°C
Humidity: 69%
Barometer: 29.89 inHg , 1012.2 hPa
Clouds: Overcast
Visibility: 10 miles , 16 km
Cloud details: Partly cloudy 2800 ft
Overcast 4600 ft
2021/06/12 16:30 KPTW 121630Z AUTO 06003KT 10SM SCT028 OVC046 21/15 A2989 RMK AO2 T02060150
 
KCDW - Caldwell, New Jersey, USA
Distance from station: NNE 50mi, 80km
Updated: Sat, 12-Jun-2021 11:53am EDT
Overcast
Overcast
 Wind from SE
Wind: SE 6 mph , 9 km/h
Temperature: 68°F , 20°C
Dew Point: 59°F , 15°C
Humidity: 73%
Barometer: 29.88 inHg , 1011.9 hPa
Clouds: Overcast
Visibility: 10 miles , 16 km
Cloud details: Overcast 4100 ft
2021/06/12 15:53 KCDW 121553Z 14005KT 10SM OVC041 20/15 A2988 RMK AO2 SLP122 T02000150